createdAt,value
2018-12-16T00:01:32.340Z,1.40
2018-12-16T00:04:00.455Z,1.60
2018-12-16T00:06:28.530Z,1.70
2018-12-16T00:08:57.450Z,1.60
2018-12-16T00:11:25.551Z,1.50
2018-12-16T00:13:53.627Z,1.40
2018-12-16T00:16:21.701Z,1.50
2018-12-16T00:18:49.826Z,1.40
2018-12-16T00:21:18.525Z,1.40
2018-12-16T00:23:46.637Z,1.40
2018-12-16T00:26:14.732Z,1.40
2018-12-16T00:28:42.812Z,1.40
2018-12-16T00:31:10.912Z,1.30
2018-12-16T00:33:38.978Z,1.30
2018-12-16T00:36:07.060Z,1.40
2018-12-16T00:38:35.154Z,1.50
2018-12-16T00:41:03.214Z,1.50
2018-12-16T00:43:31.305Z,1.70
2018-12-16T00:45:59.363Z,1.80
2018-12-16T00:48:27.466Z,1.70
2018-12-16T00:50:55.632Z,1.70
2018-12-16T00:53:23.727Z,1.80
2018-12-16T00:55:51.811Z,1.80
2018-12-16T00:58:19.880Z,1.80
2018-12-16T01:00:47.970Z,1.70
2018-12-16T01:03:16.042Z,1.60
2018-12-16T01:05:44.210Z,1.60
2018-12-16T01:08:12.289Z,1.60
2018-12-16T01:10:40.888Z,1.60
2018-12-16T01:13:08.974Z,1.70
2018-12-16T01:15:37.053Z,1.80
2018-12-16T01:18:05.199Z,2.00
2018-12-16T01:20:33.371Z,2.00
2018-12-16T01:23:01.511Z,2.10
2018-12-16T01:25:29.586Z,2.10
2018-12-16T01:27:57.656Z,2.10
2018-12-16T01:30:25.724Z,2.10
2018-12-16T01:32:53.805Z,2.20
2018-12-16T01:35:21.892Z,2.20
2018-12-16T01:37:49.999Z,2.30
2018-12-16T01:40:18.266Z,2.30
2018-12-16T01:42:46.352Z,2.40
2018-12-16T01:45:14.430Z,2.40
2018-12-16T01:47:42.527Z,2.40
2018-12-16T01:50:10.612Z,2.40
2018-12-16T01:52:38.687Z,2.30
2018-12-16T01:55:07.518Z,2.20
2018-12-16T01:57:35.583Z,2.30
2018-12-16T02:00:06.573Z,2.30
2018-12-16T02:02:34.649Z,2.40
2018-12-16T02:05:04.611Z,2.40
2018-12-16T02:07:32.675Z,2.30
2018-12-16T02:10:00.756Z,2.30
2018-12-16T02:12:28.825Z,2.30
2018-12-16T02:14:56.921Z,2.20
2018-12-16T02:17:25.821Z,2.20
2018-12-16T02:19:53.981Z,2.20
2018-12-16T02:22:22.086Z,2.20
2018-12-16T02:24:50.135Z,2.10
2018-12-16T02:27:18.306Z,2.10
2018-12-16T02:29:46.414Z,2.00
2018-12-16T02:32:14.498Z,1.70
2018-12-16T02:34:42.559Z,1.60
2018-12-16T02:37:11.384Z,1.60
2018-12-16T02:39:39.467Z,1.50
2018-12-16T02:42:07.541Z,1.40
2018-12-16T02:44:35.781Z,1.40
2018-12-16T02:47:03.926Z,1.40
2018-12-16T02:49:32.023Z,1.50
2018-12-16T02:52:00.261Z,1.60
2018-12-16T02:54:28.307Z,1.60
2018-12-16T02:56:56.375Z,1.60
2018-12-16T02:59:24.441Z,1.60
2018-12-16T03:01:52.543Z,1.50
2018-12-16T03:04:20.610Z,1.60
2018-12-16T03:06:48.723Z,1.80
2018-12-16T03:09:16.806Z,1.90
2018-12-16T03:11:44.953Z,1.80
2018-12-16T03:14:13.056Z,1.70
2018-12-16T03:16:41.141Z,1.60
2018-12-16T03:19:09.199Z,1.50
2018-12-16T03:21:37.298Z,1.50
2018-12-16T03:24:05.420Z,1.50
2018-12-16T03:26:36.026Z,1.50
2018-12-16T03:29:03.606Z,1.50
2018-12-16T03:31:31.777Z,1.60
2018-12-16T03:33:59.839Z,1.60
2018-12-16T03:36:27.945Z,1.50
2018-12-16T03:38:56.027Z,1.50
2018-12-16T03:41:24.104Z,1.60
2018-12-16T03:43:52.250Z,1.70
2018-12-16T03:46:20.318Z,1.60
2018-12-16T03:48:48.405Z,1.60
2018-12-16T03:51:16.477Z,1.50
2018-12-16T03:53:44.584Z,1.60
2018-12-16T03:56:12.714Z,1.60
2018-12-16T04:01:40.488Z,1.60
2018-12-16T04:04:08.566Z,1.60
2018-12-16T04:06:36.656Z,1.60
2018-12-16T04:09:05.177Z,1.70
2018-12-16T04:11:33.262Z,1.80
2018-12-16T04:14:01.344Z,1.80
2018-12-16T04:16:29.498Z,1.90
2018-12-16T04:18:57.587Z,2.00
2018-12-16T04:21:25.666Z,2.00
2018-12-16T04:23:53.805Z,2.00
2018-12-16T04:26:21.901Z,1.90
2018-12-16T04:28:49.973Z,1.90
2018-12-16T04:31:18.051Z,1.90
2018-12-16T04:33:46.144Z,1.90
2018-12-16T04:36:14.202Z,2.00
2018-12-16T04:38:42.273Z,2.10
2018-12-16T04:41:10.339Z,2.10
2018-12-16T04:43:38.439Z,2.10
2018-12-16T04:46:06.543Z,2.10
2018-12-16T04:48:34.804Z,2.00
2018-12-16T04:51:02.891Z,2.00
2018-12-16T04:53:35.219Z,2.10
2018-12-16T04:56:01.112Z,2.10
2018-12-16T04:58:29.215Z,2.30
2018-12-16T05:00:57.323Z,2.30
2018-12-16T05:03:25.396Z,2.30
2018-12-16T05:05:53.453Z,2.20
2018-12-16T05:08:22.467Z,2.30
2018-12-16T05:10:50.539Z,2.30
2018-12-16T05:13:18.646Z,2.30
2018-12-16T05:15:46.690Z,2.40
2018-12-16T05:18:14.788Z,2.40
2018-12-16T05:20:42.879Z,2.40
2018-12-16T05:23:10.949Z,2.20
2018-12-16T05:25:39.038Z,2.10
2018-12-16T05:28:07.104Z,2.00
2018-12-16T05:30:35.205Z,2.00
2018-12-16T05:33:03.277Z,1.90
2018-12-16T05:35:31.353Z,1.80
2018-12-16T05:37:59.423Z,1.80
2018-12-16T05:40:27.482Z,1.70
2018-12-16T05:42:55.578Z,1.70
2018-12-16T05:45:23.681Z,1.70
2018-12-16T05:47:51.769Z,1.70
2018-12-16T05:50:19.838Z,1.70
2018-12-16T05:52:47.914Z,1.80
2018-12-16T05:55:16.013Z,1.80
2018-12-16T05:57:44.125Z,1.80
2018-12-16T06:00:12.251Z,1.80
2018-12-16T06:02:40.322Z,1.80
2018-12-16T06:05:08.407Z,1.80
2018-12-16T06:07:36.509Z,1.90
2018-12-16T06:10:06.284Z,1.90
2018-12-16T06:12:34.369Z,1.90
2018-12-16T06:15:02.464Z,1.90
2018-12-16T06:17:30.530Z,1.90
2018-12-16T06:19:58.618Z,1.80
2018-12-16T06:22:26.689Z,1.70
2018-12-16T06:24:54.806Z,1.80
2018-12-16T06:27:22.871Z,1.80
2018-12-16T06:29:51.333Z,1.90
2018-12-16T06:32:19.434Z,1.90
2018-12-16T06:34:47.531Z,2.00
2018-12-16T06:37:15.621Z,2.10
2018-12-16T06:39:43.697Z,2.10
2018-12-16T06:42:11.777Z,2.20
2018-12-16T06:44:39.842Z,2.20
2018-12-16T06:47:07.946Z,2.20
2018-12-16T06:49:36.084Z,2.20
2018-12-16T06:52:04.205Z,2.20
2018-12-16T06:54:33.136Z,2.20
2018-12-16T06:57:01.237Z,2.30
2018-12-16T06:59:29.313Z,2.20
2018-12-16T07:01:59.609Z,2.20
2018-12-16T07:04:27.897Z,2.10
2018-12-16T07:06:55.974Z,2.10
2018-12-16T07:09:24.079Z,2.20
2018-12-16T07:11:52.136Z,2.20
2018-12-16T07:14:20.265Z,2.10
2018-12-16T07:16:48.406Z,2.10
2018-12-16T07:19:16.492Z,2.10
2018-12-16T07:21:44.613Z,2.10
2018-12-16T07:24:12.743Z,2.00
2018-12-16T07:26:40.907Z,2.00
2018-12-16T07:29:08.982Z,2.00
2018-12-16T07:31:37.153Z,2.10
2018-12-16T07:34:05.258Z,2.20
2018-12-16T07:36:33.338Z,2.20
2018-12-16T07:39:01.464Z,2.30
2018-12-16T07:41:29.583Z,2.20
2018-12-16T07:43:57.659Z,2.10
2018-12-16T07:46:25.812Z,1.90
2018-12-16T07:48:54.209Z,1.90
2018-12-16T07:51:22.322Z,1.80
2018-12-16T07:53:50.489Z,1.80
2018-12-16T07:56:18.562Z,1.70
2018-12-16T07:58:47.473Z,1.60
2018-12-16T08:01:15.559Z,1.60
2018-12-16T08:03:43.637Z,1.60
2018-12-16T08:06:11.701Z,1.60
2018-12-16T08:08:39.794Z,1.60
2018-12-16T08:11:07.885Z,1.60
2018-12-16T08:13:36.006Z,1.60
2018-12-16T08:16:04.095Z,1.70
2018-12-16T08:18:32.188Z,1.80
2018-12-16T08:21:00.270Z,1.90
2018-12-16T08:23:28.342Z,2.00
2018-12-16T08:25:56.410Z,2.10
2018-12-16T08:28:24.502Z,2.10
2018-12-16T08:30:52.559Z,2.10
2018-12-16T08:33:20.659Z,2.10
2018-12-16T08:35:48.861Z,2.10
2018-12-16T08:38:16.986Z,2.20
2018-12-16T08:40:45.270Z,2.20
2018-12-16T08:43:13.340Z,2.20
2018-12-16T08:45:41.407Z,2.10
2018-12-16T08:48:09.532Z,2.00
2018-12-16T08:50:37.643Z,2.00
2018-12-16T08:53:05.707Z,2.00
2018-12-16T08:55:33.783Z,2.00
2018-12-16T08:58:01.899Z,1.90
2018-12-16T09:00:30.077Z,1.90
2018-12-16T09:02:58.160Z,1.90
2018-12-16T09:05:26.339Z,1.90
2018-12-16T09:07:54.432Z,1.90
2018-12-16T09:10:22.508Z,1.90
2018-12-16T09:12:50.598Z,1.90
2018-12-16T09:15:18.664Z,1.90
2018-12-16T09:17:46.731Z,1.90
2018-12-16T09:20:14.843Z,1.90
2018-12-16T09:22:42.915Z,2.00
2018-12-16T09:25:11.059Z,2.00
2018-12-16T09:27:39.459Z,1.80
2018-12-16T09:30:09.166Z,1.80
2018-12-16T09:32:37.266Z,1.80
2018-12-16T09:35:05.443Z,1.90
2018-12-16T09:37:33.527Z,1.90
2018-12-16T09:40:01.658Z,1.90
2018-12-16T09:42:29.754Z,1.90
2018-12-16T09:44:57.935Z,1.80
2018-12-16T09:47:26.319Z,1.90
2018-12-16T09:49:54.409Z,1.90
2018-12-16T09:52:23.676Z,1.80
2018-12-16T09:54:51.935Z,1.80
2018-12-16T09:57:20.092Z,1.80
2018-12-16T09:59:48.149Z,1.80
2018-12-16T10:02:16.258Z,1.90
2018-12-16T10:04:44.327Z,2.00
2018-12-16T10:07:12.538Z,2.10
2018-12-16T10:09:40.630Z,2.20
2018-12-16T10:12:08.750Z,2.20
2018-12-16T10:14:36.856Z,2.30
2018-12-16T10:17:04.963Z,2.30
2018-12-16T10:19:33.035Z,2.40
2018-12-16T10:22:01.135Z,2.40
2018-12-16T10:24:29.245Z,2.40
2018-12-16T10:26:57.406Z,2.40
2018-12-16T10:29:25.511Z,2.50
2018-12-16T10:31:53.606Z,2.60
2018-12-16T10:34:22.639Z,2.60
2018-12-16T10:36:50.956Z,2.70
2018-12-16T10:39:19.062Z,2.60
2018-12-16T10:41:47.156Z,2.70
2018-12-16T10:44:15.230Z,2.70
2018-12-16T10:46:43.315Z,2.80
2018-12-16T10:49:11.457Z,2.90
2018-12-16T10:51:39.562Z,2.90
2018-12-16T10:54:07.605Z,2.80
2018-12-16T10:56:35.707Z,3.00
2018-12-16T10:59:03.781Z,3.10
2018-12-16T11:01:31.882Z,3.10
2018-12-16T11:03:59.995Z,3.20
2018-12-16T11:06:28.979Z,3.20
2018-12-16T11:08:57.834Z,3.10
2018-12-16T11:11:25.916Z,3.20
2018-12-16T11:13:54.005Z,3.10
2018-12-16T11:16:22.167Z,2.90
2018-12-16T11:18:50.414Z,2.80
2018-12-16T11:21:18.489Z,2.70
2018-12-16T11:23:53.532Z,2.60
2018-12-16T11:26:16.753Z,2.50
2018-12-16T11:28:44.805Z,2.40
2018-12-16T11:31:12.882Z,2.50
2018-12-16T11:33:40.985Z,2.50
2018-12-16T11:36:09.123Z,2.50
2018-12-16T11:38:37.203Z,2.50
2018-12-16T11:41:05.343Z,2.60
2018-12-16T11:43:33.545Z,2.60
2018-12-16T11:46:01.616Z,2.60
2018-12-16T11:48:29.707Z,2.60
2018-12-16T11:50:58.720Z,2.50
2018-12-16T11:53:26.845Z,2.50
2018-12-16T11:55:56.734Z,2.50
2018-12-16T11:58:24.835Z,2.50
2018-12-16T12:00:52.914Z,2.70
2018-12-16T12:03:21.264Z,2.80
2018-12-16T12:05:49.382Z,2.80
2018-12-16T12:08:17.483Z,2.90
2018-12-16T12:10:45.585Z,2.90
2018-12-16T12:13:13.709Z,3.00
2018-12-16T12:15:41.808Z,3.00
2018-12-16T12:18:10.051Z,3.00
2018-12-16T12:20:38.200Z,3.10
2018-12-16T12:23:09.805Z,3.20
2018-12-16T12:25:45.630Z,3.20
2018-12-16T12:28:14.201Z,3.10
2018-12-16T12:30:43.690Z,3.10
2018-12-16T12:33:11.837Z,3.10
2018-12-16T12:35:39.924Z,3.10
2018-12-16T12:38:12.157Z,3.20
2018-12-16T12:40:42.584Z,3.30
2018-12-16T12:43:10.737Z,3.30
2018-12-16T12:45:39.764Z,3.20
2018-12-16T12:48:07.837Z,3.30
2018-12-16T12:50:36.238Z,3.30
2018-12-16T12:53:04.304Z,3.30
2018-12-16T12:55:32.427Z,3.30
2018-12-16T12:58:00.576Z,3.40
2018-12-16T13:00:28.665Z,3.40
2018-12-16T13:02:56.768Z,3.40
2018-12-16T13:05:25.784Z,3.30
2018-12-16T13:07:53.922Z,3.30
2018-12-16T13:10:22.008Z,3.30
2018-12-16T13:12:50.102Z,3.30
2018-12-16T13:15:18.279Z,3.40
2018-12-16T13:17:46.979Z,3.40
2018-12-16T13:20:15.087Z,3.40
2018-12-16T13:22:43.175Z,3.40
2018-12-16T13:25:23.257Z,3.30
2018-12-16T13:27:51.347Z,3.20
2018-12-16T13:30:19.485Z,3.20
2018-12-16T13:32:47.564Z,3.20
2018-12-16T13:35:15.703Z,3.30
2018-12-16T13:37:43.789Z,3.30
2018-12-16T13:40:11.876Z,3.30
2018-12-16T13:42:39.988Z,3.40
2018-12-16T13:45:08.279Z,3.40
2018-12-16T13:47:36.398Z,3.30
2018-12-16T13:50:06.067Z,3.30
2018-12-16T13:52:34.167Z,3.20
2018-12-16T13:55:02.274Z,3.20
2018-12-16T13:57:31.876Z,3.20
2018-12-16T13:59:59.972Z,3.20
2018-12-16T14:02:28.090Z,3.30
2018-12-16T14:04:56.229Z,3.40
2018-12-16T14:07:24.336Z,3.40
2018-12-16T14:09:52.439Z,3.30
2018-12-16T14:12:20.588Z,3.30
2018-12-16T14:14:48.684Z,3.30
2018-12-16T14:17:16.762Z,3.20
2018-12-16T14:19:44.915Z,3.20
2018-12-16T14:22:12.978Z,3.10
2018-12-16T14:24:41.100Z,3.10
2018-12-16T14:27:09.232Z,3.10
2018-12-16T14:29:37.328Z,3.20
2018-12-16T14:32:05.404Z,3.20
2018-12-16T14:34:33.521Z,3.20
2018-12-16T14:37:01.618Z,3.20
2018-12-16T14:39:29.679Z,3.30
2018-12-16T14:41:57.814Z,3.40
2018-12-16T14:44:25.873Z,3.40
2018-12-16T14:46:53.987Z,3.40
2018-12-16T14:49:22.069Z,3.50
2018-12-16T14:51:50.148Z,3.40
2018-12-16T14:54:18.282Z,3.40
2018-12-16T14:56:46.413Z,3.30
2018-12-16T14:59:14.509Z,3.30
2018-12-16T15:01:42.591Z,3.30
2018-12-16T15:04:10.730Z,3.30
2018-12-16T15:06:38.808Z,3.30
2018-12-16T15:09:07.288Z,3.30
2018-12-16T15:11:35.446Z,3.30
2018-12-16T15:14:03.688Z,3.30
2018-12-16T15:16:31.800Z,3.40
2018-12-16T15:18:59.906Z,3.40
2018-12-16T15:21:27.988Z,3.40
2018-12-16T15:23:56.100Z,3.50
2018-12-16T15:26:24.688Z,3.50
2018-12-16T15:28:52.758Z,3.60
2018-12-16T15:31:20.899Z,3.60
2018-12-16T15:33:49.014Z,3.50
2018-12-16T15:36:17.586Z,3.50
2018-12-16T15:38:45.714Z,3.60
2018-12-16T15:41:13.763Z,3.60
2018-12-16T15:43:41.879Z,3.60
2018-12-16T15:46:10.003Z,3.60
2018-12-16T15:48:38.104Z,3.60
2018-12-16T15:51:06.191Z,3.60
2018-12-16T15:53:34.347Z,3.60
2018-12-16T15:56:09.108Z,3.60
2018-12-16T15:58:32.902Z,3.60
2018-12-16T16:01:01.020Z,3.70
2018-12-16T16:03:29.102Z,3.70
2018-12-16T16:05:57.191Z,3.70
2018-12-16T16:08:25.305Z,3.70
2018-12-16T16:10:53.429Z,3.80
2018-12-16T16:13:21.915Z,3.80
2018-12-16T16:15:50.092Z,3.70
2018-12-16T16:18:18.186Z,3.70
2018-12-16T16:20:46.281Z,3.70
2018-12-16T16:23:14.408Z,3.60
2018-12-16T16:25:42.526Z,3.70
2018-12-16T16:28:10.618Z,3.70
2018-12-16T16:30:38.735Z,3.80
2018-12-16T16:33:07.067Z,3.80
2018-12-16T16:35:35.263Z,3.80
2018-12-16T16:40:38.606Z,3.90
2018-12-16T16:43:06.702Z,4.00
2018-12-16T16:45:34.831Z,4.00
2018-12-16T16:48:02.974Z,4.00
2018-12-16T16:50:31.178Z,4.00
2018-12-16T16:52:59.310Z,4.10
2018-12-16T16:55:27.435Z,4.10
2018-12-16T16:57:55.554Z,4.10
2018-12-16T17:00:23.680Z,4.10
2018-12-16T17:02:51.867Z,4.10
2018-12-16T17:05:19.944Z,4.10
2018-12-16T17:07:48.046Z,4.20
2018-12-16T17:10:16.153Z,4.10
2018-12-16T17:12:44.297Z,4.10
2018-12-16T17:15:12.424Z,4.20
2018-12-16T17:17:40.547Z,4.20
2018-12-16T17:20:09.215Z,4.20
2018-12-16T17:22:37.378Z,4.20
2018-12-16T17:25:05.903Z,4.30
2018-12-16T17:27:34.291Z,4.30
2018-12-16T17:30:02.442Z,4.30
2018-12-16T17:32:30.530Z,4.30
2018-12-16T17:34:59.280Z,4.30
2018-12-16T17:37:27.425Z,4.30
2018-12-16T17:39:55.586Z,4.30
2018-12-16T17:42:23.659Z,4.30
2018-12-16T17:44:51.734Z,4.20
2018-12-16T17:47:19.839Z,4.20
2018-12-16T17:49:47.931Z,4.20
2018-12-16T17:52:16.095Z,4.20
2018-12-16T17:54:44.834Z,4.30
2018-12-16T17:57:12.999Z,4.30
2018-12-16T17:59:41.076Z,4.30
2018-12-16T18:02:09.162Z,4.20
2018-12-16T18:04:37.253Z,4.30
2018-12-16T18:07:05.499Z,4.30
2018-12-16T18:09:33.572Z,4.40
2018-12-16T18:12:01.654Z,4.40
2018-12-16T18:14:29.834Z,4.40
2018-12-16T18:16:59.009Z,4.40
2018-12-16T18:19:27.145Z,4.40
2018-12-16T18:21:55.261Z,4.40
2018-12-16T18:24:23.348Z,4.30
2018-12-16T18:26:51.541Z,4.40
2018-12-16T18:29:19.619Z,4.20
2018-12-16T18:31:47.777Z,4.20
2018-12-16T18:34:15.845Z,4.30
2018-12-16T18:36:43.988Z,4.30
2018-12-16T18:39:12.068Z,4.30
2018-12-16T18:41:40.630Z,4.30
2018-12-16T18:44:08.726Z,4.40
2018-12-16T18:46:36.831Z,4.40
2018-12-16T18:49:04.919Z,4.40
2018-12-16T18:51:33.777Z,4.40
2018-12-16T18:54:02.295Z,4.30
2018-12-16T18:56:30.439Z,4.30
2018-12-16T18:58:58.495Z,4.30
2018-12-16T19:01:26.594Z,4.40
2018-12-16T19:03:54.735Z,4.50
2018-12-16T19:06:22.841Z,4.40
2018-12-16T19:08:52.180Z,4.30
2018-12-16T19:11:20.294Z,4.30
2018-12-16T19:13:48.363Z,4.40
2018-12-16T19:16:16.449Z,4.40
2018-12-16T19:18:45.446Z,4.40
2018-12-16T19:21:13.665Z,4.40
2018-12-16T19:23:41.755Z,4.40
2018-12-16T19:26:09.827Z,4.40
2018-12-16T19:28:37.951Z,4.50
2018-12-16T19:31:06.136Z,4.50
2018-12-16T19:33:34.250Z,4.50
2018-12-16T19:36:02.385Z,4.50
2018-12-16T19:38:30.467Z,4.60
2018-12-16T19:40:58.584Z,4.60
2018-12-16T19:43:26.661Z,4.60
2018-12-16T19:45:54.761Z,4.60
2018-12-16T19:48:23.050Z,4.60
2018-12-16T19:50:51.202Z,4.50
2018-12-16T19:53:19.318Z,4.40
2018-12-16T19:55:47.475Z,4.50
2018-12-16T19:58:15.573Z,4.50
2018-12-16T20:00:43.948Z,4.50
2018-12-16T20:03:12.091Z,4.50
2018-12-16T20:05:42.165Z,4.50
2018-12-16T20:08:10.284Z,4.40
2018-12-16T20:10:38.524Z,4.50
2018-12-16T20:13:06.754Z,4.50
2018-12-16T20:15:34.846Z,4.60
2018-12-16T20:18:02.915Z,4.60
2018-12-16T20:20:31.035Z,4.60
2018-12-16T20:22:59.106Z,4.60
2018-12-16T20:25:27.195Z,4.70
2018-12-16T20:27:55.640Z,4.70
2018-12-16T20:30:23.723Z,4.80
2018-12-16T20:32:51.851Z,4.70
2018-12-16T20:35:20.383Z,4.70
2018-12-16T20:37:48.867Z,4.70
2018-12-16T20:40:16.935Z,4.70
2018-12-16T20:42:45.042Z,4.70
2018-12-16T20:45:13.139Z,4.70
2018-12-16T20:47:41.242Z,4.70
2018-12-16T20:50:09.396Z,4.70
2018-12-16T20:52:37.522Z,4.70
2018-12-16T20:55:06.212Z,4.70
2018-12-16T20:57:34.356Z,4.70
2018-12-16T21:00:02.921Z,4.70
2018-12-16T21:02:30.988Z,4.80
2018-12-16T21:04:59.132Z,4.80
2018-12-16T21:07:27.232Z,4.90
2018-12-16T21:09:55.323Z,4.90
2018-12-16T21:12:28.987Z,4.80
2018-12-16T21:15:02.772Z,4.90
2018-12-16T21:17:36.587Z,4.80
2018-12-16T21:20:06.096Z,4.90
2018-12-16T21:22:34.189Z,4.90
2018-12-16T21:25:02.340Z,4.90
2018-12-16T21:27:30.719Z,4.90
2018-12-16T21:29:58.831Z,4.90
2018-12-16T21:32:27.309Z,4.90
2018-12-16T21:34:55.438Z,4.90
2018-12-16T21:37:23.499Z,5.00
2018-12-16T21:39:51.605Z,5.00
2018-12-16T21:42:19.812Z,5.00
2018-12-16T21:44:47.926Z,5.00
2018-12-16T21:47:16.020Z,5.00
2018-12-16T21:49:44.109Z,5.00
2018-12-16T21:52:12.233Z,5.00
2018-12-16T21:54:40.363Z,5.00
2018-12-16T21:57:08.457Z,5.00
2018-12-16T21:59:36.769Z,5.00
2018-12-16T22:02:04.858Z,5.10
2018-12-16T22:04:32.970Z,5.10
2018-12-16T22:07:01.048Z,5.10
2018-12-16T22:09:29.136Z,5.10
2018-12-16T22:11:57.263Z,5.10
2018-12-16T22:14:25.308Z,5.10
2018-12-16T22:16:53.433Z,5.10
2018-12-16T22:19:21.494Z,5.10
2018-12-16T22:21:49.577Z,5.10
2018-12-16T22:24:18.502Z,5.10
2018-12-16T22:26:46.570Z,5.10
2018-12-16T22:29:14.639Z,5.10
2018-12-16T22:31:42.828Z,5.10
2018-12-16T22:34:10.955Z,5.10
2018-12-16T22:36:39.148Z,5.10
2018-12-16T22:39:07.504Z,5.10
2018-12-16T22:41:35.588Z,5.10
2018-12-16T22:44:04.245Z,5.10
2018-12-16T22:46:32.613Z,5.10
2018-12-16T22:49:00.716Z,5.10
2018-12-16T22:51:28.798Z,5.20
2018-12-16T22:53:57.176Z,5.20
2018-12-16T22:56:25.248Z,5.20
2018-12-16T22:58:54.425Z,5.30
2018-12-16T23:01:22.819Z,5.30
2018-12-16T23:03:50.975Z,5.30
2018-12-16T23:06:19.098Z,5.40
2018-12-16T23:08:47.207Z,5.40
2018-12-16T23:11:15.294Z,5.30
2018-12-16T23:13:43.395Z,5.30
2018-12-16T23:16:11.534Z,5.20
2018-12-16T23:18:39.977Z,5.20
2018-12-16T23:21:08.150Z,5.20
2018-12-16T23:23:36.271Z,5.10
2018-12-16T23:26:04.344Z,5.10
2018-12-16T23:28:32.438Z,5.00
2018-12-16T23:31:00.577Z,5.00
2018-12-16T23:33:28.611Z,5.10
2018-12-16T23:35:56.784Z,5.00
2018-12-16T23:38:25.142Z,5.00
2018-12-16T23:40:53.210Z,5.00
2018-12-16T23:43:21.312Z,4.90
2018-12-16T23:45:49.371Z,4.80
2018-12-16T23:48:17.478Z,4.70
2018-12-16T23:50:45.540Z,4.70
2018-12-16T23:53:13.628Z,4.60
2018-12-16T23:55:41.730Z,4.60
2018-12-16T23:58:09.809Z,4.60
